sensor_id;sensor_type;location;lat;lon;timestamp;P1;durP1;ratioP1;P2;durP2;ratioP2
49366;SDS011;35245;52.026;8.540;2023-02-01T00:00:29;24.65;;;4.60;;
49366;SDS011;35245;52.026;8.540;2023-02-01T00:02:58;29.40;;;5.47;;
49366;SDS011;35245;52.026;8.540;2023-02-01T00:05:25;23.02;;;4.85;;
49366;SDS011;35245;52.026;8.540;2023-02-01T00:07:53;25.55;;;4.28;;
49366;SDS011;35245;52.026;8.540;2023-02-01T00:10:21;23.85;;;5.22;;
49366;SDS011;35245;52.026;8.540;2023-02-01T00:12:48;22.00;;;4.55;;
49366;SDS011;35245;52.026;8.540;2023-02-01T00:15:15;24.42;;;5.43;;
49366;SDS011;35245;52.026;8.540;2023-02-01T00:17:43;20.35;;;4.30;;
49366;SDS011;35245;52.026;8.540;2023-02-01T00:20:10;21.60;;;6.25;;
49366;SDS011;35245;52.026;8.540;2023-02-01T00:22:38;32.67;;;5.88;;
49366;SDS011;35245;52.026;8.540;2023-02-01T00:25:07;20.60;;;6.15;;
49366;SDS011;35245;52.026;8.540;2023-02-01T00:27:35;24.10;;;5.22;;
49366;SDS011;35245;52.026;8.540;2023-02-01T00:30:02;21.13;;;4.47;;
49366;SDS011;35245;52.026;8.540;2023-02-01T00:32:30;17.58;;;4.50;;
49366;SDS011;35245;52.026;8.540;2023-02-01T00:34:57;26.23;;;4.78;;
49366;SDS011;35245;52.026;8.540;2023-02-01T00:37:25;24.52;;;4.93;;
49366;SDS011;35245;52.026;8.540;2023-02-01T00:39:52;24.20;;;5.15;;
49366;SDS011;35245;52.026;8.540;2023-02-01T00:42:22;22.25;;;4.85;;
49366;SDS011;35245;52.026;8.540;2023-02-01T00:44:49;25.20;;;4.68;;
49366;SDS011;35245;52.026;8.540;2023-02-01T00:47:16;23.95;;;4.82;;
49366;SDS011;35245;52.026;8.540;2023-02-01T00:49:45;18.40;;;4.40;;
49366;SDS011;35245;52.026;8.540;2023-02-01T00:52:12;17.33;;;4.25;;
49366;SDS011;35245;52.026;8.540;2023-02-01T00:54:39;24.70;;;5.43;;
49366;SDS011;35245;52.026;8.540;2023-02-01T00:57:06;28.75;;;5.03;;
49366;SDS011;35245;52.026;8.540;2023-02-01T00:59:34;28.40;;;4.75;;
49366;SDS011;35245;52.026;8.540;2023-02-01T01:02:02;25.83;;;4.60;;
49366;SDS011;35245;52.026;8.540;2023-02-01T01:04:29;22.40;;;4.50;;
49366;SDS011;35245;52.026;8.540;2023-02-01T01:06:56;19.27;;;4.45;;
49366;SDS011;35245;52.026;8.540;2023-02-01T01:09:23;20.10;;;4.18;;
49366;SDS011;35245;52.026;8.540;2023-02-01T01:11:50;26.77;;;5.80;;
49366;SDS011;35245;52.026;8.540;2023-02-01T01:14:17;22.42;;;4.53;;
49366;SDS011;35245;52.026;8.540;2023-02-01T01:16:46;17.27;;;4.35;;
49366;SDS011;35245;52.026;8.540;2023-02-01T01:19:15;25.70;;;4.53;;
49366;SDS011;35245;52.026;8.540;2023-02-01T01:21:42;19.48;;;4.25;;
49366;SDS011;35245;52.026;8.540;2023-02-01T01:24:09;25.08;;;4.68;;
49366;SDS011;35245;52.026;8.540;2023-02-01T01:26:37;17.63;;;3.88;;
49366;SDS011;35245;52.026;8.540;2023-02-01T01:29:04;24.60;;;4.47;;
49366;SDS011;35245;52.026;8.540;2023-02-01T01:31:31;22.35;;;4.97;;
49366;SDS011;35245;52.026;8.540;2023-02-01T01:34:00;22.17;;;5.43;;
49366;SDS011;35245;52.026;8.540;2023-02-01T01:36:27;27.42;;;4.63;;
49366;SDS011;35245;52.026;8.540;2023-02-01T01:38:55;23.00;;;5.30;;
49366;SDS011;35245;52.026;8.540;2023-02-01T01:41:23;20.45;;;4.97;;
49366;SDS011;35245;52.026;8.540;2023-02-01T01:43:55;24.23;;;4.63;;
49366;SDS011;35245;52.026;8.540;2023-02-01T01:46:25;21.20;;;5.22;;
49366;SDS011;35245;52.026;8.540;2023-02-01T01:48:57;25.42;;;5.35;;
49366;SDS011;35245;52.026;8.540;2023-02-01T01:51:35;24.42;;;5.82;;
49366;SDS011;35245;52.026;8.540;2023-02-01T01:54:07;22.73;;;5.18;;
49366;SDS011;35245;52.026;8.540;2023-02-01T01:56:43;23.88;;;5.07;;
49366;SDS011;35245;52.026;8.540;2023-02-01T01:59:13;18.38;;;4.88;;
49366;SDS011;35245;52.026;8.540;2023-02-01T02:01:40;22.10;;;6.63;;
49366;SDS011;35245;52.026;8.540;2023-02-01T02:04:09;24.85;;;4.97;;
49366;SDS011;35245;52.026;8.540;2023-02-01T02:06:38;19.52;;;4.40;;
49366;SDS011;35245;52.026;8.540;2023-02-01T02:09:10;24.20;;;5.38;;
49366;SDS011;35245;52.026;8.540;2023-02-01T02:11:37;18.38;;;4.60;;
49366;SDS011;35245;52.026;8.540;2023-02-01T02:14:05;20.85;;;5.32;;
49366;SDS011;35245;52.026;8.540;2023-02-01T02:16:38;24.75;;;5.10;;
49366;SDS011;35245;52.026;8.540;2023-02-01T02:22:54;22.27;;;5.32;;
49366;SDS011;35245;52.026;8.540;2023-02-01T02:32:59;17.05;;;4.50;;
49366;SDS011;35245;52.026;8.540;2023-02-01T02:36:06;24.60;;;5.07;;
49366;SDS011;35245;52.026;8.540;2023-02-01T02:38:41;19.85;;;4.55;;
49366;SDS011;35245;52.026;8.540;2023-02-01T02:41:18;23.92;;;4.43;;
49366;SDS011;35245;52.026;8.540;2023-02-01T02:44:12;19.00;;;5.30;;
49366;SDS011;35245;52.026;8.540;2023-02-01T02:47:13;24.83;;;4.93;;
49366;SDS011;35245;52.026;8.540;2023-02-01T02:49:55;26.02;;;5.45;;
49366;SDS011;35245;52.026;8.540;2023-02-01T02:52:50;20.48;;;5.05;;
49366;SDS011;35245;52.026;8.540;2023-02-01T02:55:53;24.20;;;4.90;;
49366;SDS011;35245;52.026;8.540;2023-02-01T02:58:38;20.77;;;5.13;;
49366;SDS011;35245;52.026;8.540;2023-02-01T03:01:24;28.25;;;4.80;;
49366;SDS011;35245;52.026;8.540;2023-02-01T03:04:09;21.90;;;4.57;;
49366;SDS011;35245;52.026;8.540;2023-02-01T03:06:44;22.33;;;4.45;;
49366;SDS011;35245;52.026;8.540;2023-02-01T03:09:13;26.63;;;5.57;;
49366;SDS011;35245;52.026;8.540;2023-02-01T03:11:47;25.10;;;5.03;;
49366;SDS011;35245;52.026;8.540;2023-02-01T03:14:37;17.95;;;4.18;;
49366;SDS011;35245;52.026;8.540;2023-02-01T03:17:08;18.45;;;4.50;;
49366;SDS011;35245;52.026;8.540;2023-02-01T03:19:40;21.05;;;4.93;;
49366;SDS011;35245;52.026;8.540;2023-02-01T03:22:15;24.63;;;4.40;;
49366;SDS011;35245;52.026;8.540;2023-02-01T03:24:48;16.90;;;4.43;;
49366;SDS011;35245;52.026;8.540;2023-02-01T03:27:21;27.17;;;4.63;;
49366;SDS011;35245;52.026;8.540;2023-02-01T03:29:58;21.50;;;4.80;;
49366;SDS011;35245;52.026;8.540;2023-02-01T03:32:34;20.30;;;4.50;;
49366;SDS011;35245;52.026;8.540;2023-02-01T03:35:18;15.55;;;3.67;;
49366;SDS011;35245;52.026;8.540;2023-02-01T03:37:53;21.98;;;4.20;;
49366;SDS011;35245;52.026;8.540;2023-02-01T03:40:29;19.15;;;4.05;;
49366;SDS011;35245;52.026;8.540;2023-02-01T03:43:02;31.30;;;4.13;;
49366;SDS011;35245;52.026;8.540;2023-02-01T03:45:34;21.15;;;4.35;;
49366;SDS011;35245;52.026;8.540;2023-02-01T03:48:07;24.45;;;5.22;;
49366;SDS011;35245;52.026;8.540;2023-02-01T03:50:38;24.08;;;4.43;;
49366;SDS011;35245;52.026;8.540;2023-02-01T03:53:14;26.38;;;5.10;;
49366;SDS011;35245;52.026;8.540;2023-02-01T03:55:46;17.15;;;4.25;;
49366;SDS011;35245;52.026;8.540;2023-02-01T03:58:15;20.75;;;3.95;;
49366;SDS011;35245;52.026;8.540;2023-02-01T04:00:44;27.83;;;4.45;;
49366;SDS011;35245;52.026;8.540;2023-02-01T04:03:16;22.08;;;4.10;;
49366;SDS011;35245;52.026;8.540;2023-02-01T04:05:44;20.70;;;4.30;;
49366;SDS011;35245;52.026;8.540;2023-02-01T04:08:11;21.13;;;4.38;;
49366;SDS011;35245;52.026;8.540;2023-02-01T04:10:39;18.98;;;4.18;;
49366;SDS011;35245;52.026;8.540;2023-02-01T04:13:06;17.98;;;4.30;;
49366;SDS011;35245;52.026;8.540;2023-02-01T04:15:34;21.05;;;4.53;;
49366;SDS011;35245;52.026;8.540;2023-02-01T04:18:01;26.67;;;4.20;;
49366;SDS011;35245;52.026;8.540;2023-02-01T04:20:29;21.98;;;3.80;;
49366;SDS011;35245;52.026;8.540;2023-02-01T04:22:56;21.08;;;4.25;;
49366;SDS011;35245;52.026;8.540;2023-02-01T04:25:23;19.95;;;3.78;;
49366;SDS011;35245;52.026;8.540;2023-02-01T04:27:52;17.42;;;3.80;;
49366;SDS011;35245;52.026;8.540;2023-02-01T04:30:19;22.50;;;4.10;;
49366;SDS011;35245;52.026;8.540;2023-02-01T04:32:48;21.02;;;3.70;;
49366;SDS011;35245;52.026;8.540;2023-02-01T04:35:16;17.80;;;3.95;;
49366;SDS011;35245;52.026;8.540;2023-02-01T04:37:43;24.38;;;4.07;;
49366;SDS011;35245;52.026;8.540;2023-02-01T04:40:10;20.45;;;4.65;;
49366;SDS011;35245;52.026;8.540;2023-02-01T04:42:38;19.75;;;4.25;;
49366;SDS011;35245;52.026;8.540;2023-02-01T04:45:07;21.27;;;4.40;;
49366;SDS011;35245;52.026;8.540;2023-02-01T04:47:35;20.90;;;4.53;;
49366;SDS011;35245;52.026;8.540;2023-02-01T04:50:03;19.55;;;6.03;;
49366;SDS011;35245;52.026;8.540;2023-02-01T04:52:33;32.45;;;5.07;;
49366;SDS011;35245;52.026;8.540;2023-02-01T04:55:00;30.33;;;6.22;;
49366;SDS011;35245;52.026;8.540;2023-02-01T04:57:28;34.33;;;5.88;;
49366;SDS011;35245;52.026;8.540;2023-02-01T04:59:55;29.38;;;5.95;;
49366;SDS011;35245;52.026;8.540;2023-02-01T05:02:24;27.17;;;5.97;;
49366;SDS011;35245;52.026;8.540;2023-02-01T05:04:51;30.95;;;5.75;;
49366;SDS011;35245;52.026;8.540;2023-02-01T05:07:19;23.02;;;4.63;;
49366;SDS011;35245;52.026;8.540;2023-02-01T05:09:46;30.33;;;6.05;;
49366;SDS011;35245;52.026;8.540;2023-02-01T05:12:13;26.35;;;5.85;;
49366;SDS011;35245;52.026;8.540;2023-02-01T05:14:58;30.58;;;5.88;;
49366;SDS011;35245;52.026;8.540;2023-02-01T05:17:26;31.13;;;5.63;;
49366;SDS011;35245;52.026;8.540;2023-02-01T05:19:53;35.65;;;6.30;;
49366;SDS011;35245;52.026;8.540;2023-02-01T05:22:21;31.05;;;5.78;;
49366;SDS011;35245;52.026;8.540;2023-02-01T05:24:48;34.50;;;5.75;;
49366;SDS011;35245;52.026;8.540;2023-02-01T05:27:15;33.25;;;7.05;;
49366;SDS011;35245;52.026;8.540;2023-02-01T05:29:42;28.25;;;6.70;;
49366;SDS011;35245;52.026;8.540;2023-02-01T05:32:09;40.17;;;5.85;;
49366;SDS011;35245;52.026;8.540;2023-02-01T05:34:41;35.75;;;6.38;;
49366;SDS011;35245;52.026;8.540;2023-02-01T05:37:08;36.40;;;6.78;;
49366;SDS011;35245;52.026;8.540;2023-02-01T05:39:35;35.70;;;5.75;;
49366;SDS011;35245;52.026;8.540;2023-02-01T05:42:02;36.42;;;5.78;;
49366;SDS011;35245;52.026;8.540;2023-02-01T05:44:29;30.67;;;6.43;;
49366;SDS011;35245;52.026;8.540;2023-02-01T05:46:56;31.73;;;5.25;;
49366;SDS011;35245;52.026;8.540;2023-02-01T05:49:24;26.10;;;5.53;;
49366;SDS011;35245;52.026;8.540;2023-02-01T05:51:52;37.90;;;6.13;;
49366;SDS011;35245;52.026;8.540;2023-02-01T05:54:19;33.63;;;6.15;;
49366;SDS011;35245;52.026;8.540;2023-02-01T05:56:46;30.38;;;5.82;;
49366;SDS011;35245;52.026;8.540;2023-02-01T05:59:14;29.52;;;5.28;;
49366;SDS011;35245;52.026;8.540;2023-02-01T06:01:41;28.08;;;5.47;;
49366;SDS011;35245;52.026;8.540;2023-02-01T06:04:08;22.83;;;5.40;;
49366;SDS011;35245;52.026;8.540;2023-02-01T06:06:35;28.30;;;5.65;;
49366;SDS011;35245;52.026;8.540;2023-02-01T06:09:04;28.83;;;5.60;;
49366;SDS011;35245;52.026;8.540;2023-02-01T06:11:31;29.15;;;5.35;;
49366;SDS011;35245;52.026;8.540;2023-02-01T06:13:58;28.52;;;5.65;;
49366;SDS011;35245;52.026;8.540;2023-02-01T06:16:26;27.65;;;5.63;;
49366;SDS011;35245;52.026;8.540;2023-02-01T06:18:53;23.92;;;5.32;;
49366;SDS011;35245;52.026;8.540;2023-02-01T06:21:20;31.05;;;5.30;;
49366;SDS011;35245;52.026;8.540;2023-02-01T06:23:49;37.70;;;5.40;;
49366;SDS011;35245;52.026;8.540;2023-02-01T06:26:18;32.97;;;5.25;;
49366;SDS011;35245;52.026;8.540;2023-02-01T06:28:45;28.15;;;4.90;;
49366;SDS011;35245;52.026;8.540;2023-02-01T06:31:12;30.38;;;5.68;;
49366;SDS011;35245;52.026;8.540;2023-02-01T06:33:39;25.13;;;5.20;;
49366;SDS011;35245;52.026;8.540;2023-02-01T06:36:07;29.48;;;5.50;;
49366;SDS011;35245;52.026;8.540;2023-02-01T06:38:37;28.23;;;5.88;;
49366;SDS011;35245;52.026;8.540;2023-02-01T06:41:04;26.75;;;4.55;;
49366;SDS011;35245;52.026;8.540;2023-02-01T06:43:33;26.02;;;4.70;;
49366;SDS011;35245;52.026;8.540;2023-02-01T06:46:02;21.30;;;4.55;;
49366;SDS011;35245;52.026;8.540;2023-02-01T06:48:31;21.92;;;4.38;;
49366;SDS011;35245;52.026;8.540;2023-02-01T06:50:59;23.05;;;4.32;;
49366;SDS011;35245;52.026;8.540;2023-02-01T06:53:27;31.52;;;5.00;;
49366;SDS011;35245;52.026;8.540;2023-02-01T06:55:56;19.85;;;4.30;;
49366;SDS011;35245;52.026;8.540;2023-02-01T06:58:27;25.45;;;4.88;;
49366;SDS011;35245;52.026;8.540;2023-02-01T07:00:57;27.70;;;4.50;;
49366;SDS011;35245;52.026;8.540;2023-02-01T07:03:24;24.67;;;4.95;;
49366;SDS011;35245;52.026;8.540;2023-02-01T07:05:54;27.52;;;5.47;;
49366;SDS011;35245;52.026;8.540;2023-02-01T07:08:24;23.00;;;4.45;;
49366;SDS011;35245;52.026;8.540;2023-02-01T07:10:53;23.23;;;4.85;;
49366;SDS011;35245;52.026;8.540;2023-02-01T07:13:20;24.08;;;4.45;;
49366;SDS011;35245;52.026;8.540;2023-02-01T07:15:48;28.58;;;5.55;;
49366;SDS011;35245;52.026;8.540;2023-02-01T07:18:16;24.80;;;4.93;;
49366;SDS011;35245;52.026;8.540;2023-02-01T07:20:46;26.83;;;5.22;;
49366;SDS011;35245;52.026;8.540;2023-02-01T07:23:17;22.70;;;4.75;;
49366;SDS011;35245;52.026;8.540;2023-02-01T07:25:45;17.77;;;4.65;;
49366;SDS011;35245;52.026;8.540;2023-02-01T07:28:12;29.98;;;6.07;;
49366;SDS011;35245;52.026;8.540;2023-02-01T07:30:39;26.42;;;5.22;;
49366;SDS011;35245;52.026;8.540;2023-02-01T07:33:06;23.30;;;4.65;;
49366;SDS011;35245;52.026;8.540;2023-02-01T07:35:35;31.63;;;6.68;;
49366;SDS011;35245;52.026;8.540;2023-02-01T07:38:02;23.05;;;5.25;;
49366;SDS011;35245;52.026;8.540;2023-02-01T07:40:29;27.30;;;5.90;;
49366;SDS011;35245;52.026;8.540;2023-02-01T07:42:57;18.63;;;5.00;;
49366;SDS011;35245;52.026;8.540;2023-02-01T07:45:25;19.52;;;4.72;;
49366;SDS011;35245;52.026;8.540;2023-02-01T07:47:52;21.60;;;4.65;;
49366;SDS011;35245;52.026;8.540;2023-02-01T07:50:19;19.90;;;4.88;;
49366;SDS011;35245;52.026;8.540;2023-02-01T07:52:48;23.70;;;5.80;;
49366;SDS011;35245;52.026;8.540;2023-02-01T07:55:15;19.00;;;4.07;;
49366;SDS011;35245;52.026;8.540;2023-02-01T07:57:42;26.45;;;4.93;;
49366;SDS011;35245;52.026;8.540;2023-02-01T08:00:10;23.33;;;4.65;;
49366;SDS011;35245;52.026;8.540;2023-02-01T08:02:57;17.73;;;4.43;;
49366;SDS011;35245;52.026;8.540;2023-02-01T08:05:24;17.88;;;4.28;;
49366;SDS011;35245;52.026;8.540;2023-02-01T08:07:53;24.52;;;4.50;;
49366;SDS011;35245;52.026;8.540;2023-02-01T08:10:20;20.83;;;4.95;;
49366;SDS011;35245;52.026;8.540;2023-02-01T08:12:47;18.27;;;4.95;;
49366;SDS011;35245;52.026;8.540;2023-02-01T08:15:16;30.50;;;5.40;;
49366;SDS011;35245;52.026;8.540;2023-02-01T08:17:47;23.63;;;4.95;;
49366;SDS011;35245;52.026;8.540;2023-02-01T08:20:14;25.65;;;5.35;;
49366;SDS011;35245;52.026;8.540;2023-02-01T08:22:41;17.75;;;4.43;;
49366;SDS011;35245;52.026;8.540;2023-02-01T08:25:10;22.45;;;4.40;;
49366;SDS011;35245;52.026;8.540;2023-02-01T08:27:38;20.52;;;4.65;;
49366;SDS011;35245;52.026;8.540;2023-02-01T08:30:05;20.75;;;4.75;;
49366;SDS011;35245;52.026;8.540;2023-02-01T08:32:34;26.17;;;5.05;;
49366;SDS011;35245;52.026;8.540;2023-02-01T08:35:04;24.67;;;5.43;;
49366;SDS011;35245;52.026;8.540;2023-02-01T08:37:32;21.92;;;4.18;;
49366;SDS011;35245;52.026;8.540;2023-02-01T08:39:59;22.73;;;4.60;;
49366;SDS011;35245;52.026;8.540;2023-02-01T08:42:27;22.23;;;4.80;;
49366;SDS011;35245;52.026;8.540;2023-02-01T08:45:12;17.95;;;4.50;;
49366;SDS011;35245;52.026;8.540;2023-02-01T08:47:40;26.60;;;5.03;;
49366;SDS011;35245;52.026;8.540;2023-02-01T08:50:07;24.42;;;5.40;;
49366;SDS011;35245;52.026;8.540;2023-02-01T08:52:36;24.63;;;4.68;;
49366;SDS011;35245;52.026;8.540;2023-02-01T08:55:04;25.58;;;5.88;;
49366;SDS011;35245;52.026;8.540;2023-02-01T08:57:33;22.23;;;4.40;;
49366;SDS011;35245;52.026;8.540;2023-02-01T09:00:01;26.55;;;4.15;;
49366;SDS011;35245;52.026;8.540;2023-02-01T09:02:29;21.05;;;4.68;;
49366;SDS011;35245;52.026;8.540;2023-02-01T09:04:56;24.13;;;4.82;;
49366;SDS011;35245;52.026;8.540;2023-02-01T09:07:24;23.98;;;5.13;;
49366;SDS011;35245;52.026;8.540;2023-02-01T09:09:51;15.40;;;4.88;;
49366;SDS011;35245;52.026;8.540;2023-02-01T09:12:19;22.48;;;5.05;;
49366;SDS011;35245;52.026;8.540;2023-02-01T09:14:48;24.90;;;4.60;;
49366;SDS011;35245;52.026;8.540;2023-02-01T09:17:15;15.52;;;4.90;;
49366;SDS011;35245;52.026;8.540;2023-02-01T09:19:42;19.73;;;5.47;;
49366;SDS011;35245;52.026;8.540;2023-02-01T09:22:10;20.13;;;4.75;;
49366;SDS011;35245;52.026;8.540;2023-02-01T09:24:37;19.27;;;4.72;;
49366;SDS011;35245;52.026;8.540;2023-02-01T09:27:04;28.10;;;4.47;;
49366;SDS011;35245;52.026;8.540;2023-02-01T09:29:31;25.70;;;5.43;;
49366;SDS011;35245;52.026;8.540;2023-02-01T09:32:00;25.05;;;4.78;;
49366;SDS011;35245;52.026;8.540;2023-02-01T09:34:27;21.35;;;5.22;;
49366;SDS011;35245;52.026;8.540;2023-02-01T09:36:55;24.67;;;5.03;;
49366;SDS011;35245;52.026;8.540;2023-02-01T09:39:23;30.17;;;6.15;;
49366;SDS011;35245;52.026;8.540;2023-02-01T09:41:52;29.33;;;5.78;;
49366;SDS011;35245;52.026;8.540;2023-02-01T09:44:40;19.38;;;4.25;;
49366;SDS011;35245;52.026;8.540;2023-02-01T09:47:30;18.83;;;6.05;;
49366;SDS011;35245;52.026;8.540;2023-02-01T09:49:59;25.55;;;4.35;;
49366;SDS011;35245;52.026;8.540;2023-02-01T09:52:32;22.35;;;3.92;;
49366;SDS011;35245;52.026;8.540;2023-02-01T09:55:05;21.23;;;4.35;;
49366;SDS011;35245;52.026;8.540;2023-02-01T09:57:43;18.85;;;4.55;;
49366;SDS011;35245;52.026;8.540;2023-02-01T10:00:19;20.05;;;4.22;;
49366;SDS011;35245;52.026;8.540;2023-02-01T10:02:54;16.63;;;4.40;;
49366;SDS011;35245;52.026;8.540;2023-02-01T10:05:24;14.68;;;3.90;;
49366;SDS011;35245;52.026;8.540;2023-02-01T10:08:24;21.40;;;4.95;;
49366;SDS011;35245;52.026;8.540;2023-02-01T10:11:04;25.17;;;6.45;;
49366;SDS011;35245;52.026;8.540;2023-02-01T10:13:50;22.25;;;5.78;;
49366;SDS011;35245;52.026;8.540;2023-02-01T10:16:30;36.85;;;13.60;;
49366;SDS011;35245;52.026;8.540;2023-02-01T10:19:19;27.42;;;7.80;;
49366;SDS011;35245;52.026;8.540;2023-02-01T10:22:02;28.92;;;9.40;;
49366;SDS011;35245;52.026;8.540;2023-02-01T10:24:36;26.08;;;6.22;;
49366;SDS011;35245;52.026;8.540;2023-02-01T10:27:11;18.67;;;5.18;;
49366;SDS011;35245;52.026;8.540;2023-02-01T10:29:47;27.05;;;9.13;;
49366;SDS011;35245;52.026;8.540;2023-02-01T10:32:21;21.48;;;5.13;;
49366;SDS011;35245;52.026;8.540;2023-02-01T10:35:02;32.25;;;10.80;;
49366;SDS011;35245;52.026;8.540;2023-02-01T10:37:39;22.45;;;6.47;;
49366;SDS011;35245;52.026;8.540;2023-02-01T10:40:12;25.55;;;5.30;;
49366;SDS011;35245;52.026;8.540;2023-02-01T10:42:46;23.17;;;5.57;;
49366;SDS011;35245;52.026;8.540;2023-02-01T10:45:16;22.23;;;4.75;;
49366;SDS011;35245;52.026;8.540;2023-02-01T10:47:47;21.83;;;4.70;;
49366;SDS011;35245;52.026;8.540;2023-02-01T10:50:21;23.40;;;4.97;;
49366;SDS011;35245;52.026;8.540;2023-02-01T10:53:02;22.17;;;5.80;;
49366;SDS011;35245;52.026;8.540;2023-02-01T10:55:39;14.95;;;3.97;;
49366;SDS011;35245;52.026;8.540;2023-02-01T10:58:14;16.92;;;4.43;;
49366;SDS011;35245;52.026;8.540;2023-02-01T11:00:46;17.65;;;4.00;;
49366;SDS011;35245;52.026;8.540;2023-02-01T11:03:30;23.10;;;6.10;;
49366;SDS011;35245;52.026;8.540;2023-02-01T11:06:13;20.13;;;5.70;;
49366;SDS011;35245;52.026;8.540;2023-02-01T11:08:49;22.83;;;6.50;;
49366;SDS011;35245;52.026;8.540;2023-02-01T11:11:19;20.10;;;4.65;;
49366;SDS011;35245;52.026;8.540;2023-02-01T11:13:51;15.60;;;4.15;;
49366;SDS011;35245;52.026;8.540;2023-02-01T11:16:29;17.35;;;3.53;;
49366;SDS011;35245;52.026;8.540;2023-02-01T11:19:00;20.98;;;3.92;;
49366;SDS011;35245;52.026;8.540;2023-02-01T11:21:29;18.27;;;4.40;;
49366;SDS011;35245;52.026;8.540;2023-02-01T11:23:59;15.38;;;4.40;;
49366;SDS011;35245;52.026;8.540;2023-02-01T11:26:29;25.92;;;4.88;;
49366;SDS011;35245;52.026;8.540;2023-02-01T11:28:58;19.30;;;4.10;;
49366;SDS011;35245;52.026;8.540;2023-02-01T11:31:30;18.98;;;4.15;;
49366;SDS011;35245;52.026;8.540;2023-02-01T11:34:04;19.88;;;4.07;;
49366;SDS011;35245;52.026;8.540;2023-02-01T11:36:38;16.83;;;4.05;;
49366;SDS011;35245;52.026;8.540;2023-02-01T11:39:08;18.88;;;3.92;;
49366;SDS011;35245;52.026;8.540;2023-02-01T11:41:55;16.60;;;3.33;;
49366;SDS011;35245;52.026;8.540;2023-02-01T11:44:30;23.45;;;4.43;;
49366;SDS011;35245;52.026;8.540;2023-02-01T11:47:23;20.95;;;5.13;;
49366;SDS011;35245;52.026;8.540;2023-02-01T11:49:53;15.65;;;3.97;;
49366;SDS011;35245;52.026;8.540;2023-02-01T11:52:29;23.88;;;4.35;;
49366;SDS011;35245;52.026;8.540;2023-02-01T11:55:17;19.08;;;4.72;;
49366;SDS011;35245;52.026;8.540;2023-02-01T11:58:22;18.20;;;4.60;;
49366;SDS011;35245;52.026;8.540;2023-02-01T12:01:25;23.83;;;4.95;;
49366;SDS011;35245;52.026;8.540;2023-02-01T12:07:36;22.52;;;5.47;;
49366;SDS011;35245;52.026;8.540;2023-02-01T12:10:51;31.05;;;8.13;;
49366;SDS011;35245;52.026;8.540;2023-02-01T12:13:40;30.40;;;7.07;;
49366;SDS011;35245;52.026;8.540;2023-02-01T12:16:23;24.52;;;8.07;;
49366;SDS011;35245;52.026;8.540;2023-02-01T12:19:11;23.17;;;7.47;;
49366;SDS011;35245;52.026;8.540;2023-02-01T12:22:00;21.55;;;6.63;;
49366;SDS011;35245;52.026;8.540;2023-02-01T12:24:58;24.23;;;7.88;;
49366;SDS011;35245;52.026;8.540;2023-02-01T12:28:04;28.75;;;9.85;;
49366;SDS011;35245;52.026;8.540;2023-02-01T12:31:15;33.53;;;9.03;;
49366;SDS011;35245;52.026;8.540;2023-02-01T12:34:10;31.90;;;10.75;;
49366;SDS011;35245;52.026;8.540;2023-02-01T12:36:52;30.73;;;9.75;;
49366;SDS011;35245;52.026;8.540;2023-02-01T12:39:35;33.55;;;11.32;;
49366;SDS011;35245;52.026;8.540;2023-02-01T12:42:13;33.42;;;9.25;;
49366;SDS011;35245;52.026;8.540;2023-02-01T12:44:48;35.42;;;11.90;;
49366;SDS011;35245;52.026;8.540;2023-02-01T12:47:22;36.72;;;11.02;;
49366;SDS011;35245;52.026;8.540;2023-02-01T12:49:57;31.77;;;11.50;;
49366;SDS011;35245;52.026;8.540;2023-02-01T12:52:32;26.17;;;10.02;;
49366;SDS011;35245;52.026;8.540;2023-02-01T12:55:07;24.98;;;11.85;;
49366;SDS011;35245;52.026;8.540;2023-02-01T12:57:49;34.05;;;12.52;;
49366;SDS011;35245;52.026;8.540;2023-02-01T13:00:22;34.88;;;10.85;;
49366;SDS011;35245;52.026;8.540;2023-02-01T13:02:59;32.10;;;11.57;;
49366;SDS011;35245;52.026;8.540;2023-02-01T13:05:41;35.28;;;12.45;;
49366;SDS011;35245;52.026;8.540;2023-02-01T13:08:16;27.80;;;11.73;;
49366;SDS011;35245;52.026;8.540;2023-02-01T13:10:51;34.17;;;11.57;;
49366;SDS011;35245;52.026;8.540;2023-02-01T13:13:28;30.85;;;11.30;;
49366;SDS011;35245;52.026;8.540;2023-02-01T13:16:06;29.27;;;9.25;;
49366;SDS011;35245;52.026;8.540;2023-02-01T13:18:43;25.75;;;9.68;;
49366;SDS011;35245;52.026;8.540;2023-02-01T13:21:17;31.60;;;10.95;;
49366;SDS011;35245;52.026;8.540;2023-02-01T13:23:50;29.13;;;9.75;;
49366;SDS011;35245;52.026;8.540;2023-02-01T13:26:19;25.80;;;9.68;;
49366;SDS011;35245;52.026;8.540;2023-02-01T13:28:48;28.30;;;7.82;;
49366;SDS011;35245;52.026;8.540;2023-02-01T13:34:30;24.98;;;8.63;;
49366;SDS011;35245;52.026;8.540;2023-02-01T13:37:35;24.23;;;7.53;;
49366;SDS011;35245;52.026;8.540;2023-02-01T13:40:30;19.08;;;6.88;;
49366;SDS011;35245;52.026;8.540;2023-02-01T13:43:06;24.30;;;8.70;;
49366;SDS011;35245;52.026;8.540;2023-02-01T13:45:45;20.27;;;7.35;;
49366;SDS011;35245;52.026;8.540;2023-02-01T13:48:20;21.08;;;6.63;;
49366;SDS011;35245;52.026;8.540;2023-02-01T13:50:52;23.13;;;6.47;;
49366;SDS011;35245;52.026;8.540;2023-02-01T13:53:23;20.23;;;5.28;;
49366;SDS011;35245;52.026;8.540;2023-02-01T13:55:57;18.08;;;5.80;;
49366;SDS011;35245;52.026;8.540;2023-02-01T13:58:31;22.92;;;6.93;;
49366;SDS011;35245;52.026;8.540;2023-02-01T14:04:02;23.13;;;5.95;;
49366;SDS011;35245;52.026;8.540;2023-02-01T14:06:36;19.20;;;6.43;;
49366;SDS011;35245;52.026;8.540;2023-02-01T14:09:12;22.08;;;5.55;;
49366;SDS011;35245;52.026;8.540;2023-02-01T14:11:44;15.93;;;4.53;;
49366;SDS011;35245;52.026;8.540;2023-02-01T14:23:17;11.82;;;4.20;;
49366;SDS011;35245;52.026;8.540;2023-02-01T14:28:46;10.23;;;4.20;;
49366;SDS011;35245;52.026;8.540;2023-02-01T14:31:43;12.18;;;2.75;;
49366;SDS011;35245;52.026;8.540;2023-02-01T14:34:24;16.50;;;3.60;;
49366;SDS011;35245;52.026;8.540;2023-02-01T14:37:08;15.30;;;4.75;;
49366;SDS011;35245;52.026;8.540;2023-02-01T14:39:46;19.10;;;5.25;;
49366;SDS011;35245;52.026;8.540;2023-02-01T14:44:55;8.35;;;4.22;;
49366;SDS011;35245;52.026;8.540;2023-02-01T14:47:38;10.77;;;3.22;;
49366;SDS011;35245;52.026;8.540;2023-02-01T14:53:14;20.90;;;4.95;;
49366;SDS011;35245;52.026;8.540;2023-02-01T14:55:49;13.93;;;4.68;;
49366;SDS011;35245;52.026;8.540;2023-02-01T14:58:30;12.98;;;4.38;;
49366;SDS011;35245;52.026;8.540;2023-02-01T15:01:13;13.70;;;4.05;;
49366;SDS011;35245;52.026;8.540;2023-02-01T15:03:56;15.45;;;5.22;;
49366;SDS011;35245;52.026;8.540;2023-02-01T15:06:32;15.55;;;5.53;;
49366;SDS011;35245;52.026;8.540;2023-02-01T15:09:04;18.65;;;5.50;;
49366;SDS011;35245;52.026;8.540;2023-02-01T15:11:54;12.52;;;4.93;;
49366;SDS011;35245;52.026;8.540;2023-02-01T15:14:28;18.33;;;5.15;;
49366;SDS011;35245;52.026;8.540;2023-02-01T15:16:57;23.10;;;6.65;;
49366;SDS011;35245;52.026;8.540;2023-02-01T15:19:25;15.10;;;4.85;;
49366;SDS011;35245;52.026;8.540;2023-02-01T15:21:57;20.30;;;4.95;;
49366;SDS011;35245;52.026;8.540;2023-02-01T15:24:26;19.95;;;6.50;;
49366;SDS011;35245;52.026;8.540;2023-02-01T15:26:55;17.30;;;4.65;;
49366;SDS011;35245;52.026;8.540;2023-02-01T15:29:29;13.95;;;4.95;;
49366;SDS011;35245;52.026;8.540;2023-02-01T15:31:58;22.83;;;4.07;;
49366;SDS011;35245;52.026;8.540;2023-02-01T15:37:14;24.08;;;5.03;;
49366;SDS011;35245;52.026;8.540;2023-02-01T15:42:48;12.15;;;3.70;;
49366;SDS011;35245;52.026;8.540;2023-02-01T15:45:19;16.15;;;4.00;;
49366;SDS011;35245;52.026;8.540;2023-02-01T15:47:51;22.35;;;4.45;;
49366;SDS011;35245;52.026;8.540;2023-02-01T15:50:21;17.83;;;4.80;;